createdAt,value
2022-11-01T00:01:59.586Z,100969.13
2022-11-01T00:04:29.161Z,100997.09
2022-11-01T00:06:57.929Z,100976.44
2022-11-01T00:09:26.212Z,101006.47
2022-11-01T00:11:54.335Z,101020.78
2022-11-01T00:14:22.860Z,101033.06
2022-11-01T00:16:51.300Z,101036.75
2022-11-01T00:19:19.615Z,101055.19
2022-11-01T00:21:49.136Z,101062.56
2022-11-01T00:24:17.225Z,101089.78
2022-11-01T00:26:45.549Z,101101.13
2022-11-01T00:29:14.312Z,101085.16
2022-11-01T00:31:42.310Z,101123.81
2022-11-01T00:34:10.449Z,101138.22
2022-11-01T00:36:38.460Z,101148.53
2022-11-01T00:39:08.272Z,101155.06
2022-11-01T00:41:36.926Z,101128.81
2022-11-01T00:44:05.050Z,101105.34
2022-11-01T00:46:33.531Z,101016.50
2022-11-01T00:49:01.809Z,100960.03
2022-11-01T00:51:30.187Z,100890.28
2022-11-01T00:53:58.173Z,100886.56
2022-11-01T00:56:27.631Z,100869.00
2022-11-01T00:58:55.818Z,100852.31
2022-11-01T01:01:24.058Z,100866.81
2022-11-01T01:03:52.194Z,100831.50
2022-11-01T01:06:20.154Z,100838.16
2022-11-01T01:08:48.227Z,100821.22
2022-11-01T01:11:16.890Z,100814.69
2022-11-01T01:13:46.338Z,100835.25
2022-11-01T01:16:14.446Z,100828.16
2022-11-01T01:18:42.446Z,100845.19
2022-11-01T01:21:10.477Z,100855.31
2022-11-01T01:23:38.629Z,100848.03
2022-11-01T01:26:08.395Z,100849.56
2022-11-01T01:28:41.756Z,100860.00
2022-11-01T01:31:15.618Z,100871.41
2022-11-01T01:33:43.672Z,100868.59
2022-11-01T01:36:12.448Z,100874.41
2022-11-01T01:38:40.466Z,100866.38
2022-11-01T01:41:25.669Z,100886.25
2022-11-01T01:43:53.751Z,100895.72
2022-11-01T01:46:23.316Z,100890.31
2022-11-01T01:48:54.627Z,100904.88
2022-11-01T01:51:26.063Z,100910.78
2022-11-01T01:53:56.077Z,100918.47
2022-11-01T01:56:28.511Z,100923.59
2022-11-01T01:59:01.363Z,100923.31
2022-11-01T02:01:31.940Z,100927.72
2022-11-01T02:04:00.253Z,100938.09
2022-11-01T02:06:28.536Z,100954.56
2022-11-01T02:08:59.372Z,100954.38
2022-11-01T02:11:27.522Z,100971.63
2022-11-01T02:13:55.989Z,100973.94
2022-11-01T02:16:39.657Z,100992.97
2022-11-01T02:19:43.573Z,100998.94
2022-11-01T02:22:16.014Z,100999.84
2022-11-01T02:25:04.574Z,101013.06
2022-11-01T02:27:44.421Z,101000.97
2022-11-01T02:30:15.950Z,101030.63
2022-11-01T02:33:11.308Z,101043.78
2022-11-01T02:35:49.747Z,101028.09
2022-11-01T02:38:26.296Z,101033.50
2022-11-01T02:41:04.316Z,101045.66
2022-11-01T02:43:38.179Z,101054.19
2022-11-01T02:46:21.444Z,101081.03
2022-11-01T02:48:51.788Z,101069.53
2022-11-01T02:51:22.581Z,101076.41
2022-11-01T02:53:50.707Z,101079.03
2022-11-01T02:56:20.269Z,101089.56
2022-11-01T02:58:52.859Z,101081.63
2022-11-01T03:01:26.153Z,101091.91
2022-11-01T03:03:59.089Z,101095.38
2022-11-01T03:06:34.431Z,101109.06
2022-11-01T03:09:05.431Z,101130.69
2022-11-01T03:11:40.469Z,101132.47
2022-11-01T03:14:17.017Z,101143.78
2022-11-01T03:16:54.165Z,101147.94
2022-11-01T03:19:36.326Z,101153.94
2022-11-01T03:22:11.176Z,101156.63
2022-11-01T03:24:46.404Z,101158.41
2022-11-01T03:27:19.702Z,101199.22
2022-11-01T03:29:57.130Z,101172.84
2022-11-01T03:32:29.630Z,101168.53
2022-11-01T03:35:01.478Z,101178.25
2022-11-01T03:37:32.674Z,101185.34
2022-11-01T03:40:05.441Z,101182.00
2022-11-01T03:42:35.180Z,101197.88
2022-11-01T03:45:08.386Z,101192.13
2022-11-01T03:47:37.520Z,101187.31
2022-11-01T03:50:18.280Z,101198.03
2022-11-01T03:52:47.474Z,101202.59
2022-11-01T03:55:19.413Z,101205.38
2022-11-01T03:57:48.240Z,101221.19
2022-11-01T04:00:17.917Z,101226.47
2022-11-01T04:02:46.622Z,101218.72
2022-11-01T04:05:17.573Z,101223.16
2022-11-01T04:07:45.874Z,101231.03
2022-11-01T04:10:14.894Z,101223.41
2022-11-01T04:12:46.864Z,101231.59
2022-11-01T04:15:33.133Z,101256.25
2022-11-01T04:18:30.157Z,101270.41
2022-11-01T04:21:02.456Z,101295.06
2022-11-01T04:23:30.686Z,101310.75
2022-11-01T04:25:58.772Z,101322.16
2022-11-01T04:28:26.847Z,101329.84
2022-11-01T04:30:55.757Z,101326.06
2022-11-01T04:33:23.819Z,101317.06
2022-11-01T04:35:51.946Z,101308.09
2022-11-01T04:38:21.551Z,101311.50
2022-11-01T04:40:49.603Z,101315.66
2022-11-01T04:43:17.634Z,101315.44
2022-11-01T04:45:45.818Z,101315.19
2022-11-01T04:48:17.155Z,101318.50
2022-11-01T04:50:46.052Z,101323.47
2022-11-01T04:53:14.224Z,101304.03
2022-11-01T04:55:43.731Z,101301.34
2022-11-01T04:58:12.026Z,101324.06
2022-11-01T05:00:40.222Z,101324.06
2022-11-01T05:03:09.476Z,101324.94
2022-11-01T05:05:39.146Z,101339.03
2022-11-01T05:08:09.241Z,101334.88
2022-11-01T05:10:39.072Z,101341.97
2022-11-01T05:13:09.115Z,101346.50
2022-11-01T05:15:40.271Z,101354.44
2022-11-01T05:18:11.935Z,101351.06
2022-11-01T05:20:40.018Z,101359.94
2022-11-01T05:23:08.244Z,101362.72
2022-11-01T05:25:38.194Z,101393.28
2022-11-01T05:28:10.052Z,101374.19
2022-11-01T05:30:41.863Z,101365.47
2022-11-01T05:33:11.984Z,101382.94
2022-11-01T05:35:40.037Z,101380.50
2022-11-01T05:38:14.738Z,101374.50
2022-11-01T05:40:43.120Z,101392.06
2022-11-01T05:43:12.575Z,101372.03
2022-11-01T05:45:40.625Z,101381.72
2022-11-01T05:48:08.664Z,101374.63
2022-11-01T05:50:36.727Z,101374.78
2022-11-01T05:53:08.552Z,101379.19
2022-11-01T05:55:36.980Z,101380.94
2022-11-01T05:58:05.726Z,101384.50
2022-11-01T06:00:35.882Z,101383.75
2022-11-01T06:03:04.837Z,101381.19
2022-11-01T06:05:33.947Z,101383.03
2022-11-01T06:08:02.967Z,101396.13
2022-11-01T06:10:31.384Z,101385.72
2022-11-01T06:13:00.575Z,101384.91
2022-11-01T06:15:28.821Z,101389.28
2022-11-01T06:17:58.893Z,101388.50
2022-11-01T06:20:27.517Z,101389.41
2022-11-01T06:22:55.523Z,101386.03
2022-11-01T06:25:23.747Z,101389.69
2022-11-01T06:27:52.011Z,101394.16
2022-11-01T06:30:20.096Z,101396.91
2022-11-01T06:32:48.210Z,101400.59
2022-11-01T06:35:18.932Z,101385.84
2022-11-01T06:37:47.650Z,101378.13
2022-11-01T06:40:15.780Z,101383.38
2022-11-01T06:42:46.594Z,101375.66
2022-11-01T06:45:16.231Z,101383.59
2022-11-01T06:47:49.392Z,101384.59
2022-11-01T06:50:19.354Z,101394.41
2022-11-01T06:52:47.575Z,101399.97
2022-11-01T06:55:17.660Z,101404.53
2022-11-01T06:57:55.647Z,101412.47
2022-11-01T07:00:24.590Z,101409.84
2022-11-01T07:02:59.661Z,101402.88
2022-11-01T07:05:32.844Z,101409.16
2022-11-01T07:08:05.595Z,101411.13
2022-11-01T07:10:34.094Z,101415.50
2022-11-01T07:13:03.437Z,101416.44
2022-11-01T07:15:31.943Z,101407.91
2022-11-01T07:18:01.301Z,101415.13
2022-11-01T07:20:34.701Z,101413.53
2022-11-01T07:23:04.980Z,101414.53
2022-11-01T07:25:35.560Z,101413.84
2022-11-01T07:28:03.750Z,101417.47
2022-11-01T07:30:32.030Z,101426.13
2022-11-01T07:33:02.317Z,101434.75
2022-11-01T07:35:32.450Z,101430.31
2022-11-01T07:38:03.845Z,101430.16
2022-11-01T07:40:34.706Z,101440.41
2022-11-01T07:43:03.101Z,101435.88
2022-11-01T07:45:33.816Z,101432.19
2022-11-01T07:48:05.604Z,101439.84
2022-11-01T07:50:36.138Z,101447.56
2022-11-01T07:53:08.393Z,101446.38
2022-11-01T07:55:37.741Z,101454.09
2022-11-01T07:58:07.018Z,101453.09
2022-11-01T08:03:04.310Z,101450.34
2022-11-01T08:05:35.027Z,101452.91
2022-11-01T08:08:04.157Z,101458.13
2022-11-01T08:10:33.433Z,101452.81
2022-11-01T08:13:03.438Z,101446.09
2022-11-01T08:15:31.706Z,101446.19
2022-11-01T08:18:00.670Z,101450.66
2022-11-01T08:20:30.073Z,101449.09
2022-11-01T08:23:00.126Z,101453.59
2022-11-01T08:25:28.441Z,101454.69
2022-11-01T08:27:56.495Z,101465.28
2022-11-01T08:30:24.451Z,101476.72
2022-11-01T08:32:59.362Z,101490.94
2022-11-01T08:35:27.966Z,101498.97
2022-11-01T08:37:56.714Z,101502.78
2022-11-01T08:40:26.525Z,101504.75
2022-11-01T08:42:54.539Z,101504.03
2022-11-01T08:45:23.013Z,101516.41
2022-11-01T08:47:51.096Z,101515.69
2022-11-01T08:50:19.375Z,101512.16
2022-11-01T08:52:47.394Z,101512.00
2022-11-01T08:55:15.399Z,101508.44
2022-11-01T08:57:44.819Z,101516.19
2022-11-01T09:00:16.454Z,101525.78
2022-11-01T09:02:44.391Z,101518.09
2022-11-01T09:05:12.440Z,101518.22
2022-11-01T09:07:40.607Z,101514.06
2022-11-01T09:10:09.717Z,101515.91
2022-11-01T09:12:38.301Z,101517.84
2022-11-01T09:15:08.499Z,101526.59
2022-11-01T09:17:36.664Z,101530.06
2022-11-01T09:20:06.071Z,101524.97
2022-11-01T09:22:34.063Z,101533.72
2022-11-01T09:25:02.068Z,101537.31
2022-11-01T09:27:29.993Z,101533.78
2022-11-01T09:29:57.996Z,101532.72
2022-11-01T09:32:29.092Z,101539.47
2022-11-01T09:34:57.045Z,101541.69
2022-11-01T09:37:25.157Z,101547.28
2022-11-01T09:39:53.183Z,101549.47
2022-11-01T09:42:26.417Z,101543.13
2022-11-01T09:44:57.698Z,101536.91
2022-11-01T09:47:30.967Z,101528.03
2022-11-01T09:50:05.982Z,101543.38
2022-11-01T09:52:34.103Z,101539.56
2022-11-01T09:55:02.030Z,101553.28
2022-11-01T09:57:36.361Z,101547.84
2022-11-01T10:00:09.025Z,101552.03
2022-11-01T10:03:20.283Z,101548.47
2022-11-01T10:05:55.831Z,101549.41
2022-11-01T10:08:45.530Z,101547.47
2022-11-01T10:11:28.738Z,101559.50
2022-11-01T10:14:06.729Z,101549.81
2022-11-01T10:16:37.853Z,101555.91
2022-11-01T10:19:14.828Z,101552.19
2022-11-01T10:21:46.857Z,101561.53
2022-11-01T10:24:25.294Z,101557.81
2022-11-01T10:27:00.645Z,101567.09
2022-11-01T10:29:35.173Z,101563.25
2022-11-01T10:32:06.122Z,101560.41
2022-11-01T10:34:40.595Z,101546.25
2022-11-01T10:37:22.424Z,101554.03
2022-11-01T10:39:58.910Z,101548.94
2022-11-01T10:42:30.945Z,101544.78
2022-11-01T10:45:02.101Z,101543.09
2022-11-01T10:47:30.678Z,101520.53
2022-11-01T10:50:06.581Z,101512.47
2022-11-01T10:52:45.978Z,101503.28
2022-11-01T10:55:17.039Z,101520.19
2022-11-01T10:57:50.685Z,101519.59
2022-11-01T11:00:21.992Z,101517.66
2022-11-01T11:02:54.386Z,101514.31
2022-11-01T11:05:25.583Z,101497.44
2022-11-01T11:07:53.750Z,101493.75
2022-11-01T11:10:24.960Z,101498.59
2022-11-01T11:12:59.189Z,101489.03
2022-11-01T11:15:37.319Z,101496.41
2022-11-01T11:18:09.763Z,101483.63
2022-11-01T11:20:39.204Z,101472.19
2022-11-01T11:23:12.904Z,101456.34
2022-11-01T11:25:43.097Z,101428.13
2022-11-01T11:28:25.668Z,101382.72
2022-11-01T11:30:54.569Z,101352.75
2022-11-01T11:33:23.699Z,101358.66
2022-11-01T11:35:58.937Z,101359.22
2022-11-01T11:38:44.616Z,101370.16
2022-11-01T11:41:14.468Z,101377.16
2022-11-01T11:43:42.697Z,101382.66
2022-11-01T11:46:21.619Z,101395.13
2022-11-01T11:48:52.399Z,101386.34
2022-11-01T11:51:22.396Z,101350.59
2022-11-01T11:54:13.504Z,101360.09
2022-11-01T11:56:41.779Z,101354.47
2022-11-01T11:59:22.563Z,101363.78
2022-11-01T12:01:50.843Z,101370.19
2022-11-01T12:04:21.053Z,101379.00
2022-11-01T12:06:50.668Z,101372.97
2022-11-01T12:09:45.331Z,101379.56
2022-11-01T12:12:21.123Z,101362.16
2022-11-01T12:14:52.088Z,101367.84
2022-11-01T12:17:45.938Z,101333.03
2022-11-01T12:20:17.268Z,101282.00
2022-11-01T12:22:51.825Z,101247.22
2022-11-01T12:25:23.642Z,101227.69
2022-11-01T12:28:02.215Z,101223.28
2022-11-01T12:30:34.739Z,101180.91
2022-11-01T12:33:10.751Z,101188.84
2022-11-01T12:35:44.107Z,101185.47
2022-11-01T12:38:35.032Z,101173.88
2022-11-01T12:41:14.925Z,101167.50
2022-11-01T12:43:56.589Z,101135.84
2022-11-01T12:46:34.001Z,101120.47
2022-11-01T12:49:06.617Z,101114.31
2022-11-01T12:51:38.847Z,101094.94
2022-11-01T12:54:16.076Z,101121.69
2022-11-01T12:56:44.134Z,101101.03
2022-11-01T12:59:15.179Z,101103.84
2022-11-01T13:01:53.080Z,101098.91
2022-11-01T13:04:31.918Z,101132.16
2022-11-01T13:07:15.738Z,101197.84
2022-11-01T13:09:55.629Z,101280.72
2022-11-01T13:12:32.368Z,101307.44
2022-11-01T13:15:08.237Z,101322.97
2022-11-01T13:17:45.211Z,101349.44
2022-11-01T13:20:36.724Z,101359.44
2022-11-01T13:23:16.778Z,101358.88
2022-11-01T13:25:53.060Z,101368.91
2022-11-01T13:28:43.336Z,101395.69
2022-11-01T13:31:24.205Z,101412.00
2022-11-01T13:33:59.909Z,101405.47
2022-11-01T13:36:38.084Z,101395.03
2022-11-01T13:39:18.056Z,101381.47
2022-11-01T13:41:54.589Z,101374.69
2022-11-01T13:44:25.937Z,101369.44
2022-11-01T13:47:33.687Z,101372.06
2022-11-01T13:50:22.323Z,101414.69
2022-11-01T13:52:58.100Z,101413.63
2022-11-01T13:55:36.377Z,101375.94
2022-11-01T13:58:06.942Z,101413.84
2022-11-01T14:00:41.468Z,101486.66
2022-11-01T14:03:36.998Z,101471.00
2022-11-01T14:09:29.143Z,101549.19
2022-11-01T14:11:59.241Z,101592.28
2022-11-01T14:14:54.252Z,101587.25
2022-11-01T14:18:03.443Z,101597.09
2022-11-01T14:20:53.242Z,101582.50
2022-11-01T14:24:01.908Z,101576.66
2022-11-01T14:26:47.850Z,101565.44
2022-11-01T14:29:16.642Z,101570.59
2022-11-01T14:31:49.135Z,101563.38
2022-11-01T14:34:36.240Z,101557.84
2022-11-01T14:37:15.488Z,101584.63
2022-11-01T14:39:52.693Z,101540.19
2022-11-01T14:42:27.185Z,101530.41
2022-11-01T14:45:00.061Z,101522.47
2022-11-01T14:47:35.544Z,101505.78
2022-11-01T14:50:14.433Z,101450.97
2022-11-01T14:52:47.071Z,101431.06
2022-11-01T14:55:20.344Z,101405.16
2022-11-01T14:57:49.135Z,101386.84
2022-11-01T15:00:26.761Z,101380.19
2022-11-01T15:02:57.097Z,101377.16
2022-11-01T15:05:25.400Z,101351.81
2022-11-01T15:07:55.170Z,101320.75
2022-11-01T15:10:23.991Z,101297.84
2022-11-01T15:12:54.849Z,101280.50
2022-11-01T15:15:26.004Z,101271.53
2022-11-01T15:17:58.726Z,101254.97
2022-11-01T15:20:30.149Z,101248.38
2022-11-01T15:23:00.529Z,101256.84
2022-11-01T15:25:28.606Z,101244.16
2022-11-01T15:27:58.215Z,101254.84
2022-11-01T15:30:28.364Z,101259.97
2022-11-01T15:33:16.690Z,101275.19
2022-11-01T15:35:44.763Z,101284.91
2022-11-01T15:38:20.888Z,101301.25
2022-11-01T15:40:50.361Z,101303.53
2022-11-01T15:43:20.775Z,101303.94
2022-11-01T15:45:53.269Z,101304.22
2022-11-01T15:48:27.254Z,101331.34
2022-11-01T15:50:58.619Z,101398.75
2022-11-01T15:54:19.142Z,101416.72
2022-11-01T15:56:54.216Z,101446.78
2022-11-01T15:59:29.356Z,101460.09
2022-11-01T16:02:00.883Z,101490.06
2022-11-01T16:04:41.053Z,101532.53
2022-11-01T16:07:12.560Z,101567.16
2022-11-01T16:09:45.230Z,101596.56
2022-11-01T16:12:19.207Z,101630.38
2022-11-01T16:14:53.551Z,101636.41
2022-11-01T16:17:31.705Z,101643.19
2022-11-01T16:20:04.800Z,101648.19
2022-11-01T16:22:39.132Z,101642.78
2022-11-01T16:25:22.435Z,101642.50
2022-11-01T16:28:00.291Z,101650.94
2022-11-01T16:30:53.143Z,101637.69
2022-11-01T16:33:31.112Z,101627.00
2022-11-01T16:36:03.203Z,101612.91
2022-11-01T16:38:43.464Z,101597.97
2022-11-01T16:41:20.490Z,101603.84
2022-11-01T16:43:49.280Z,101595.09
2022-11-01T16:46:17.553Z,101585.59
2022-11-01T16:49:16.687Z,101600.38
2022-11-01T16:51:46.096Z,101595.00
2022-11-01T16:54:14.136Z,101597.50
2022-11-01T16:56:45.866Z,101602.72
2022-11-01T16:59:33.037Z,101591.38
2022-11-01T17:02:15.322Z,101569.00
2022-11-01T17:04:44.032Z,101555.13
2022-11-01T17:07:13.529Z,101548.34
2022-11-01T17:09:41.489Z,101543.38
2022-11-01T17:12:09.433Z,101545.50
2022-11-01T17:14:38.002Z,101554.41
2022-11-01T17:17:08.825Z,101571.88
2022-11-01T17:19:42.091Z,101569.16
2022-11-01T17:22:19.201Z,101576.09
2022-11-01T17:24:47.522Z,101602.88
2022-11-01T17:27:15.869Z,101672.19
2022-11-01T17:29:44.239Z,101611.75
2022-11-01T17:32:12.584Z,101591.41
2022-11-01T17:34:40.672Z,101555.66
2022-11-01T17:37:13.602Z,101552.75
2022-11-01T17:39:43.033Z,101592.16
2022-11-01T17:42:11.802Z,101606.97
2022-11-01T17:44:39.763Z,101613.97
2022-11-01T17:47:07.708Z,101636.56
2022-11-01T17:49:35.823Z,101655.66
2022-11-01T17:52:04.427Z,101665.09
2022-11-01T17:54:32.397Z,101677.13
2022-11-01T17:57:01.880Z,101678.78
2022-11-01T17:59:31.053Z,101681.25
2022-11-01T18:01:59.061Z,101687.06
2022-11-01T18:04:27.085Z,101704.00
2022-11-01T18:06:56.851Z,101721.69
2022-11-01T18:09:27.190Z,101728.41
2022-11-01T18:12:05.602Z,101746.56
2022-11-01T18:14:49.346Z,101732.34
2022-11-01T18:17:35.251Z,101727.50
2022-11-01T18:20:31.708Z,101737.66
2022-11-01T18:23:04.661Z,101728.19
2022-11-01T18:25:40.377Z,101729.25
2022-11-01T18:28:14.288Z,101729.41
2022-11-01T18:30:45.112Z,101734.75
2022-11-01T18:33:23.233Z,101736.56
2022-11-01T18:35:57.018Z,101745.16
2022-11-01T18:38:30.648Z,101768.22
2022-11-01T18:41:01.128Z,101752.00
2022-11-01T18:43:33.503Z,101718.50
2022-11-01T18:46:23.790Z,101703.34
2022-11-01T18:48:59.632Z,101688.22
2022-11-01T18:51:30.226Z,101691.31
2022-11-01T18:54:20.949Z,101680.72
2022-11-01T18:56:52.210Z,101697.16
2022-11-01T18:59:29.385Z,101700.03
2022-11-01T19:02:01.813Z,101728.09
2022-11-01T19:04:32.539Z,101743.81
2022-11-01T19:07:09.810Z,101775.63
2022-11-01T19:09:39.470Z,101795.78
2022-11-01T19:12:15.854Z,101817.47
2022-11-01T19:18:26.027Z,101848.41
2022-11-01T19:20:55.536Z,101858.63
2022-11-01T19:23:30.949Z,101846.94
2022-11-01T19:25:59.146Z,101863.09
2022-11-01T19:28:31.536Z,101844.53
2022-11-01T19:31:15.050Z,101841.78
2022-11-01T19:33:47.189Z,101824.22
2022-11-01T19:36:19.214Z,101844.03
2022-11-01T19:38:48.174Z,101843.81
2022-11-01T19:41:19.951Z,101837.53
2022-11-01T19:43:48.018Z,101853.09
2022-11-01T19:46:22.353Z,101871.09
2022-11-01T19:48:54.200Z,101877.81
2022-11-01T19:51:24.865Z,101865.47
2022-11-01T19:53:53.835Z,101853.19
2022-11-01T19:56:23.982Z,101875.81
2022-11-01T19:58:54.517Z,101866.25
2022-11-01T20:01:35.191Z,101847.47
2022-11-01T20:04:11.780Z,101849.41
2022-11-01T20:06:46.716Z,101855.03
2022-11-01T20:09:20.426Z,101871.72
2022-11-01T20:11:48.592Z,101876.66
2022-11-01T20:14:17.073Z,101885.06
2022-11-01T20:16:46.292Z,101867.41
2022-11-01T20:19:17.718Z,101851.50
2022-11-01T20:21:46.548Z,101857.41
2022-11-01T20:24:15.583Z,101828.47
2022-11-01T20:26:43.996Z,101854.28
2022-11-01T20:29:12.609Z,101813.13
2022-11-01T20:31:40.847Z,101829.88
2022-11-01T20:34:09.541Z,101810.88
2022-11-01T20:36:39.660Z,101830.06
2022-11-01T20:39:10.354Z,101806.50
2022-11-01T20:41:49.635Z,101843.81
2022-11-01T20:44:20.393Z,101823.59
2022-11-01T20:46:48.499Z,101820.03
2022-11-01T20:49:16.454Z,101826.09
2022-11-01T20:51:46.135Z,101757.31
2022-11-01T20:54:17.793Z,101738.16
2022-11-01T20:56:46.024Z,101793.84
2022-11-01T20:59:15.970Z,101715.38
2022-11-01T21:01:47.411Z,101737.06
2022-11-01T21:04:19.387Z,101769.84
2022-11-01T21:06:49.755Z,101784.66
2022-11-01T21:09:31.927Z,101820.25
2022-11-01T21:12:00.137Z,101856.28
2022-11-01T21:14:37.363Z,101867.81
2022-11-01T21:17:16.112Z,101881.75
2022-11-01T21:19:45.405Z,101894.59
2022-11-01T21:22:20.673Z,101905.72
2022-11-01T21:24:50.345Z,101934.53
2022-11-01T21:27:24.891Z,101949.13
2022-11-01T21:29:55.820Z,101969.53
2022-11-01T21:32:30.103Z,101992.22
2022-11-01T21:34:59.172Z,102042.44
2022-11-01T21:37:31.084Z,102064.03
2022-11-01T21:40:05.965Z,102069.25
2022-11-01T21:42:39.103Z,102068.03
2022-11-01T21:45:28.571Z,102072.75
2022-11-01T21:48:01.336Z,102056.78
2022-11-01T21:50:29.660Z,102042.69
2022-11-01T21:52:59.083Z,102032.16
2022-11-01T21:55:27.100Z,102011.97
2022-11-01T21:57:55.294Z,101974.31
2022-11-01T22:00:23.273Z,101934.00
2022-11-01T22:02:51.316Z,101892.84
2022-11-01T22:05:19.334Z,101871.75
2022-11-01T22:07:47.239Z,101875.72
2022-11-01T22:10:16.859Z,101884.25
2022-11-01T22:12:44.904Z,101904.16
2022-11-01T22:15:14.254Z,101898.94
2022-11-01T22:17:42.535Z,101915.38
2022-11-01T22:20:10.975Z,101947.63
2022-11-01T22:22:39.137Z,101991.44
2022-11-01T22:25:07.922Z,102049.56
2022-11-01T22:27:37.645Z,102076.72
2022-11-01T22:30:06.495Z,102099.00
2022-11-01T22:32:34.558Z,102147.03
2022-11-01T22:35:02.531Z,102186.84
2022-11-01T22:37:35.407Z,102243.44
2022-11-01T22:40:06.427Z,102256.66
2022-11-01T22:42:34.386Z,102272.38
2022-11-01T22:45:04.042Z,102303.66
2022-11-01T22:47:32.152Z,102314.78
2022-11-01T22:50:03.844Z,102318.13
2022-11-01T22:52:36.406Z,102320.59
2022-11-01T22:55:19.386Z,102319.56
2022-11-01T22:57:50.746Z,102301.91
2022-11-01T23:00:32.408Z,102266.94
2022-11-01T23:03:03.524Z,102215.41
2022-11-01T23:05:32.021Z,102174.31
2022-11-01T23:08:11.374Z,102172.50
2022-11-01T23:10:39.343Z,102147.94
2022-11-01T23:13:35.267Z,102145.94
2022-11-01T23:16:21.513Z,102136.09
2022-11-01T23:18:49.941Z,102121.31
2022-11-01T23:21:18.741Z,102105.59
2022-11-01T23:23:49.067Z,102105.56
2022-11-01T23:26:19.038Z,102114.97
2022-11-01T23:28:51.012Z,102106.25
2022-11-01T23:31:21.811Z,102079.13
2022-11-01T23:33:51.193Z,102071.22
2022-11-01T23:36:21.502Z,102065.91
2022-11-01T23:38:53.208Z,102060.59
2022-11-01T23:41:23.884Z,102066.53
2022-11-01T23:43:54.814Z,102076.81
2022-11-01T23:46:24.627Z,102057.59
2022-11-01T23:48:59.388Z,102055.91
2022-11-01T23:51:27.537Z,102063.72
2022-11-01T23:53:57.322Z,102043.81
2022-11-01T23:56:25.600Z,102045.56
2022-11-01T23:58:57.788Z,102055.13
